Time,TemperatureF,DewpointF,PressureIn,WindDirection,WindDirectionDegrees,WindSpeedMPH,WindSpeedGustMPH,Humidity,HourlyPrecipIn,Conditions,Clouds,dailyrainin,SoftwareType,DateUTC
2013-12-04 00:00:00,17.0,13.3,29.82,WSW,239,0.0,0.0,85,0.00,,SKC,0.00,VWS V12.07,2013-12-04 07:00:00,
2013-12-04 00:30:00,16.9,12.6,29.82,West,273,0.0,0.0,83,0.00,,SKC,0.00,VWS V12.07,2013-12-04 07:30:00,
2013-12-04 01:00:00,16.9,12.4,29.83,NNE,22,0.0,0.0,82,0.00,,SKC,0.00,VWS V12.07,2013-12-04 08:00:00,
2013-12-04 01:30:00,16.1,11.3,29.83,SE,140,0.0,0.0,81,0.00,,SKC,0.00,VWS V12.07,2013-12-04 08:30:00,
2013-12-04 02:00:00,15.6,10.8,29.85,SE,139,0.0,0.0,81,0.00,,SKC,0.00,VWS V12.07,2013-12-04 09:00:00,
2013-12-04 02:30:00,15.1,10.6,29.83,SSE,164,0.0,0.0,82,0.00,,SKC,0.00,VWS V12.07,2013-12-04 09:30:00,
2013-12-04 03:00:00,15.1,10.9,29.87,SSE,162,0.0,0.0,83,0.00,,SKC,0.00,VWS V12.07,2013-12-04 10:00:00,
2013-12-04 03:30:00,14.6,10.1,29.89,SSE,160,0.0,0.0,82,0.00,,SKC,0.00,VWS V12.07,2013-12-04 10:30:00,
2013-12-04 04:00:00,14.1,8.8,29.89,SE,128,0.0,0.0,79,0.00,,SKC,0.00,VWS V12.07,2013-12-04 11:00:00,
2013-12-04 04:30:00,13.3,7.4,29.89,SSE,164,0.0,0.0,77,0.00,,SKC,0.00,VWS V12.07,2013-12-04 11:30:00,
2013-12-04 05:00:00,26.8,25.8,29.81,East,99,3.0,10.0,96,0.00,,SKC,0.00,VWS V12.07,2013-12-04 12:00:00,
2013-12-04 05:30:00,26.6,25.6,29.83,ENE,78,5.0,9.0,96,0.00,,SKC,0.00,VWS V12.07,2013-12-04 12:30:00,
2013-12-04 06:00:00,11.7,4.4,29.83,SSE,159,0.0,9.0,72,0.00,,SKC,0.00,VWS V12.07,2013-12-04 13:00:00,
2013-12-04 06:30:00,11.1,3.5,29.97,ESE,115,0.0,0.0,71,0.00,,SKC,0.00,VWS V12.07,2013-12-04 13:30:00,
2013-12-04 07:00:00,10.5,3.3,30.00,South,187,0.0,0.0,72,0.00,,SKC,0.00,VWS V12.07,2013-12-04 14:00:00,
2013-12-04 07:30:00,26.1,25.1,30.01,NNE,23,2.0,6.0,96,0.00,,SKC,0.00,VWS V12.07,2013-12-04 14:30:00,
2013-12-04 08:00:00,25.9,24.9,29.89,NE,35,5.0,13.0,96,0.00,,SKC,0.00,VWS V12.07,2013-12-04 15:00:00,
2013-12-04 08:30:00,25.7,24.7,29.90,ENE,61,4.0,5.0,96,0.00,,SKC,0.00,VWS V12.07,2013-12-04 15:30:00,
2013-12-04 09:00:00,9.7,1.3,29.93,South,187,0.0,9.0,68,0.00,,SKC,0.00,VWS V12.07,2013-12-04 16:00:00,
2013-12-04 09:30:00,8.6,0.5,30.08,ESE,115,0.0,0.0,69,0.00,,SKC,0.00,VWS V12.07,2013-12-04 16:30:00,
2013-12-04 10:00:00,8.3,0.6,30.10,ESE,115,0.0,0.0,70,0.00,,SKC,0.00,VWS V12.07,2013-12-04 17:00:00,
2013-12-04 10:30:00,12.3,1.8,30.09,ESE,119,0.0,0.0,62,0.00,,SKC,0.00,VWS V12.07,2013-12-04 17:30:00,
2013-12-04 11:00:00,12.3,1.4,30.11,ESE,117,0.0,0.0,61,0.00,,SKC,0.00,VWS V12.07,2013-12-04 18:00:00,
2013-12-04 11:30:00,13.3,2.0,30.11,NE,53,0.0,0.0,60,0.00,,SKC,0.00,VWS V12.07,2013-12-04 18:30:00,
2013-12-04 12:00:00,14.1,2.4,30.11,ENE,68,0.0,0.0,59,0.00,,SKC,0.00,VWS V12.07,2013-12-04 19:00:00,
2013-12-04 12:30:00,14.6,1.0,30.11,NNW,331,0.0,0.0,54,0.01,,SKC,0.01,VWS V12.07,2013-12-04 19:30:00,
2013-12-04 13:00:00,15.2,1.1,30.11,SE,144,0.0,0.0,53,0.02,,SKC,0.02,VWS V12.07,2013-12-04 20:00:00,
2013-12-04 13:30:00,16.5,1.1,30.11,SE,142,0.0,0.0,50,0.04,,SKC,0.04,VWS V12.07,2013-12-04 20:30:00,
2013-12-04 14:00:00,14.6,-0.2,30.13,ESE,107,0.0,0.0,51,0.06,,SKC,0.06,VWS V12.07,2013-12-04 21:00:00,
2013-12-04 14:30:00,14.4,-0.4,30.14,ESE,115,0.0,0.0,51,0.04,,SKC,0.08,VWS V12.07,2013-12-04 21:30:00,
2013-12-04 15:00:00,25.3,24.1,30.06,West,277,1.0,5.0,95,0.05,,SKC,0.09,VWS V12.07,2013-12-04 22:00:00,
2013-12-04 15:30:00,25.4,24.2,30.07,WNW,289,0.0,3.0,95,0.01,,SKC,0.09,VWS V12.07,2013-12-04 22:30:00,
2013-12-04 16:00:00,25.4,24.2,30.10,SW,229,1.0,4.0,95,0.01,,SKC,0.09,VWS V12.07,2013-12-04 23:00:00,
2013-12-04 16:30:00,25.5,24.0,30.10,SW,235,1.0,3.0,94,0.00,,SKC,0.09,VWS V12.07,2013-12-04 23:30:00,
2013-12-04 17:00:00,25.5,24.0,30.03,SSW,208,2.0,3.0,94,0.00,,SKC,0.09,VWS V12.07,2013-12-05 00:00:00,
2013-12-04 17:30:00,25.5,24.3,30.03,SSE,165,1.0,2.0,95,0.00,,SKC,0.09,VWS V12.07,2013-12-05 00:30:00,
2013-12-04 18:00:00,25.4,23.9,30.15,SE,126,3.0,4.0,94,0.00,,SKC,0.09,VWS V12.07,2013-12-05 01:00:00,
2013-12-04 18:30:00,25.4,23.9,30.15,SE,137,0.0,4.0,94,0.00,,SKC,0.09,VWS V12.07,2013-12-05 01:30:00,
2013-12-04 19:00:00,25.2,24.0,30.17,SE,134,1.0,4.0,95,0.00,,SKC,0.09,VWS V12.07,2013-12-05 02:00:00,
2013-12-04 19:30:00,24.3,22.8,30.17,SE,128,2.0,3.0,94,0.00,,SKC,0.09,VWS V12.07,2013-12-05 02:30:00,
2013-12-04 20:00:00,23.3,21.8,30.07,SE,130,2.0,4.0,94,0.00,,SKC,0.09,VWS V12.07,2013-12-05 03:00:00,
2013-12-04 20:30:00,22.1,20.9,30.09,SSE,155,3.0,4.0,95,0.00,,SKC,0.09,VWS V12.07,2013-12-05 03:30:00,
2013-12-04 21:00:00,20.9,19.5,30.20,SSE,167,4.0,5.0,94,0.00,,SKC,0.09,VWS V12.07,2013-12-05 04:00:00,
2013-12-04 21:30:00,19.7,18.5,30.23,SSE,167,4.0,4.0,95,0.00,,SKC,0.09,VWS V12.07,2013-12-05 04:30:00,
2013-12-04 22:00:00,18.8,17.6,30.22,SSE,163,1.0,4.0,95,0.00,,SKC,0.09,VWS V12.07,2013-12-05 05:00:00,
2013-12-04 22:30:00,18.0,16.8,30.24,SSE,150,2.0,5.0,95,0.00,,SKC,0.09,VWS V12.07,2013-12-05 05:30:00,
2013-12-04 23:00:00,17.1,15.9,30.24,SSE,153,1.0,5.0,95,0.00,,SKC,0.09,VWS V12.07,2013-12-05 06:00:00,
2013-12-04 23:30:00,16.4,15.2,30.24,SSE,153,0.0,2.0,95,0.00,,SKC,0.09,VWS V12.07,2013-12-05 06:30:00,